Time;durP1;ratioP1;P1;durP2;ratioP2;P2;SDS_P1;SDS_P2;PMS_P1;PMS_P2;Temp;Humidity;BMP_temperature;BMP_pressure;BME280_temperature;BME280_humidity;BME280_pressure;Samples;Min_cycle;Max_cycle;Signal;HPM_P1;HPM_P2
2023/09/10 00:01:11;;;;;;;5.68;4.50;;;;;;;20.04;100.00;97493.00;5092236;28;20924;-77
2023/09/10 00:03:38;;;;;;;7.20;4.75;;;;;;;20.03;100.00;97499.47;5091664;28;20402;-77
2023/09/10 00:06:06;;;;;;;8.25;4.70;;;;;;;20.01;100.00;97490.09;5092333;28;20763;-77
2023/09/10 00:08:32;;;;;;;8.80;4.97;;;;;;;19.98;100.00;97496.91;5092011;28;20980;-77
2023/09/10 00:10:59;;;;;;;8.05;5.43;;;;;;;19.96;100.00;97498.31;5090578;28;20891;-77
2023/09/10 00:13:26;;;;;;;7.93;5.40;;;;;;;19.91;100.00;97506.53;5084327;28;20479;-77
2023/09/10 00:15:52;;;;;;;8.23;5.20;;;;;;;19.85;100.00;97503.16;5071464;28;20517;-77
2023/09/10 00:18:19;;;;;;;8.15;5.10;;;;;;;19.81;100.00;97496.03;5071472;28;20396;-77
2023/09/10 00:20:50;;;;;;;8.77;5.30;;;;;;;19.81;100.00;97504.88;5073705;28;20487;-77
2023/09/10 00:23:16;;;;;;;7.72;5.05;;;;;;;19.81;100.00;97502.19;5077153;28;20435;-77
2023/09/10 00:25:42;;;;;;;7.83;5.30;;;;;;;19.80;100.00;97500.59;5071336;28;20404;-77
2023/09/10 00:28:08;;;;;;;7.78;5.13;;;;;;;19.79;100.00;97500.91;5071424;28;20499;-77
2023/09/10 00:30:35;;;;;;;8.18;5.10;;;;;;;19.77;100.00;97503.91;5071363;28;20404;-77
2023/09/10 00:33:01;;;;;;;8.18;5.22;;;;;;;19.79;100.00;97506.28;5071240;28;20403;-77
2023/09/10 00:35:27;;;;;;;8.07;5.50;;;;;;;19.78;100.00;97502.00;5071857;28;20442;-77
2023/09/10 00:37:55;;;;;;;6.50;4.82;;;;;;;19.78;100.00;97502.78;5081248;28;20417;-77
2023/09/10 00:40:21;;;;;;;8.90;5.30;;;;;;;19.79;100.00;97499.00;5091318;28;20759;-77
2023/09/10 00:42:48;;;;;;;6.32;4.30;;;;;;;19.79;100.00;97492.84;5091410;28;20412;-77
2023/09/10 00:45:14;;;;;;;5.75;4.32;;;;;;;19.80;100.00;97495.22;5091019;28;20406;-77
2023/09/10 00:47:43;;;;;;;9.63;5.27;;;;;;;19.80;100.00;97489.84;5091311;28;20395;-77
2023/09/10 00:50:10;;;;;;;9.95;5.18;;;;;;;19.79;100.00;97490.94;5091184;28;20430;-77
2023/09/10 00:52:40;;;;;;;5.82;4.65;;;;;;;19.78;100.00;97483.19;5091245;28;20849;-77
2023/09/10 00:55:08;;;;;;;6.53;5.05;;;;;;;19.75;100.00;97487.31;5090821;28;20398;-77
2023/09/10 00:57:35;;;;;;;7.13;5.00;;;;;;;19.75;100.00;97484.63;5091141;28;20422;-77
2023/09/10 01:00:03;;;;;;;7.18;5.00;;;;;;;19.75;100.00;97489.19;5090966;28;20781;-77
2023/09/10 01:02:30;;;;;;;5.25;4.10;;;;;;;19.74;100.00;97491.09;5091143;28;20398;-77
2023/09/10 01:04:57;;;;;;;8.30;5.15;;;;;;;19.71;100.00;97489.00;5090381;28;20400;-77
2023/09/10 01:07:23;;;;;;;6.10;4.70;;;;;;;19.69;100.00;97496.59;5083860;28;20400;-77
2023/09/10 01:09:49;;;;;;;8.37;5.07;;;;;;;19.66;100.00;97489.94;5070725;28;20433;-77
2023/09/10 01:12:27;;;;;;;8.27;5.25;;;;;;;19.64;100.00;97494.03;5070688;28;20939;-77
2023/09/10 01:15:03;;;;;;;7.97;5.32;;;;;;;19.59;100.00;97496.84;5070326;28;20403;-77
2023/09/10 01:17:37;;;;;;;9.75;5.22;;;;;;;19.56;100.00;97489.38;5070619;28;20404;-77
2023/09/10 01:20:30;;;;;;;7.35;5.18;;;;;;;19.56;100.00;97492.06;5083203;28;20408;-77
2023/09/10 01:23:03;;;;;;;8.20;5.10;;;;;;;19.58;100.00;97482.63;5084593;28;20409;-77
2023/09/10 01:25:31;;;;;;;7.70;5.05;;;;;;;19.59;100.00;97489.56;5090557;28;20416;-77
2023/09/10 01:27:58;;;;;;;7.25;4.88;;;;;;;19.58;100.00;97489.88;5090711;28;20835;-77
2023/09/10 01:30:24;;;;;;;6.10;4.60;;;;;;;19.56;100.00;97489.38;5090094;28;20406;-77
2023/09/10 01:32:56;;;;;;;9.18;5.18;;;;;;;19.54;100.00;97488.91;5090616;28;20408;-77
2023/09/10 01:35:32;;;;;;;10.93;6.25;;;;;;;19.45;100.00;97486.13;5090142;28;20874;-77
2023/09/10 01:38:02;;;;;;;10.00;5.63;;;;;;;19.45;100.00;97482.66;5090405;28;20432;-77
2023/09/10 01:40:38;;;;;;;7.63;5.60;;;;;;;19.45;100.00;97483.47;5090524;28;20408;-77
2023/09/10 01:43:06;;;;;;;9.10;4.78;;;;;;;19.45;100.00;97480.78;5090396;28;20409;-77
2023/09/10 01:45:34;;;;;;;6.70;4.70;;;;;;;19.45;100.00;97482.66;5090135;28;20395;-77
2023/09/10 01:48:01;;;;;;;8.90;5.60;;;;;;;19.42;100.00;97486.75;5086431;28;20391;-77
2023/09/10 01:50:29;;;;;;;12.30;5.85;;;;;;;19.38;100.00;97493.84;5070236;28;20400;-77
2023/09/10 01:52:57;;;;;;;6.60;5.10;;;;;;;19.33;100.00;97489.34;5069978;28;20477;-77
2023/09/10 01:55:24;;;;;;;8.00;5.13;;;;;;;19.32;100.00;97492.38;5069928;28;20408;-77
2023/09/10 01:57:53;;;;;;;6.05;4.40;;;;;;;19.29;100.00;97484.91;5087861;28;20418;-77
2023/09/10 02:00:19;;;;;;;7.40;4.70;;;;;;;19.27;100.00;97485.22;5090419;28;20779;-77
2023/09/10 02:02:45;;;;;;;8.93;4.90;;;;;;;19.24;100.00;97483.16;5090282;28;20931;-77
2023/09/10 02:05:11;;;;;;;10.68;5.88;;;;;;;19.22;100.00;97487.22;5105574;28;20402;-77
2023/09/10 02:07:37;;;;;;;11.68;6.63;;;;;;;19.17;100.00;97479.31;5090102;28;20401;-77
2023/09/10 02:10:04;;;;;;;9.90;5.70;;;;;;;19.12;100.00;97484.78;5090197;28;20933;-77
2023/09/10 02:12:33;;;;;;;8.53;5.40;;;;;;;19.12;100.00;97482.09;5090073;28;20434;-77
2023/09/10 02:15:03;;;;;;;7.95;5.28;;;;;;;19.15;100.00;97486.84;5089799;28;20481;-77
2023/09/10 02:17:29;;;;;;;6.25;4.70;;;;;;;19.16;100.00;97478.50;5089877;28;20410;-77
2023/09/10 02:19:56;;;;;;;6.13;4.70;;;;;;;19.18;100.00;97478.97;5090116;28;20451;-77
2023/09/10 02:22:22;;;;;;;6.43;4.35;;;;;;;19.20;100.00;97473.31;5089826;28;20426;-77
2023/09/10 02:24:50;;;;;;;6.25;4.82;;;;;;;19.19;100.00;97475.19;5089696;28;20899;-77
2023/09/10 02:27:16;;;;;;;7.50;4.63;;;;;;;19.20;100.00;97481.38;5090087;28;20394;-77
2023/09/10 02:29:43;;;;;;;6.53;4.90;;;;;;;19.20;100.00;97478.69;5105621;28;20776;-77
2023/09/10 02:32:10;;;;;;;6.80;5.22;;;;;;;19.19;100.00;97482.47;5089856;28;20480;-77
2023/09/10 02:34:36;;;;;;;11.32;6.55;;;;;;;19.11;100.00;97478.59;5089554;28;20421;-77
2023/09/10 02:37:03;;;;;;;7.63;5.33;;;;;;;19.08;100.00;97479.22;5089776;28;20414;-77
2023/09/10 02:39:29;;;;;;;6.85;5.03;;;;;;;19.05;100.00;97474.47;5089628;28;20409;-78
2023/09/10 02:41:55;;;;;;;13.68;6.97;;;;;;;19.01;100.00;97480.75;5089814;28;20402;-77
2023/09/10 02:44:21;;;;;;;8.43;5.88;;;;;;;18.96;100.00;97476.28;5093268;28;20394;-77
2023/09/10 02:46:48;;;;;;;8.07;5.60;;;;;;;18.95;100.00;97472.00;5093402;28;20398;-77
2023/09/10 02:49:17;;;;;;;7.93;5.38;;;;;;;18.94;100.00;97473.88;5093568;28;20401;-77
2023/09/10 02:51:43;;;;;;;8.68;5.68;;;;;;;18.91;100.00;97479.06;5093367;28;20401;-77
2023/09/10 02:54:10;;;;;;;7.82;5.13;;;;;;;18.88;100.00;97467.06;5093325;28;20463;-77
2023/09/10 02:56:36;;;;;;;10.15;5.70;;;;;;;18.84;100.00;97467.97;5093461;28;20418;-77
2023/09/10 02:59:02;;;;;;;7.05;5.15;;;;;;;18.82;100.00;97473.63;5093520;28;20426;-77
2023/09/10 03:01:28;;;;;;;7.07;5.10;;;;;;;18.80;100.00;97469.66;5093287;28;20406;-77
2023/09/10 03:03:54;;;;;;;10.20;5.38;;;;;;;18.76;100.00;97466.78;5093044;28;20946;-77
2023/09/10 03:06:22;;;;;;;8.05;5.18;;;;;;;18.71;100.00;97468.81;5093152;28;20394;-77
2023/09/10 03:08:48;;;;;;;7.05;4.95;;;;;;;18.68;100.00;97474.75;5093197;28;20906;-77
2023/09/10 03:11:14;;;;;;;7.65;5.25;;;;;;;18.67;100.00;97473.16;5093212;28;20402;-77
2023/09/10 03:13:41;;;;;;;7.65;5.82;;;;;;;18.66;100.00;97480.41;5092810;28;20430;-77
2023/09/10 03:16:07;;;;;;;9.43;5.63;;;;;;;18.63;100.00;97472.97;5092876;28;20418;-77
2023/09/10 03:18:34;;;;;;;7.53;5.47;;;;;;;18.62;100.00;97482.13;5075934;28;20431;-77
2023/09/10 03:21:03;;;;;;;7.90;5.15;;;;;;;18.59;100.00;97479.22;5076492;28;20405;-77
2023/09/10 03:23:30;;;;;;;7.60;5.27;;;;;;;18.53;100.00;97484.69;5084724;28;20435;-77
2023/09/10 03:25:56;;;;;;;5.75;4.70;;;;;;;18.51;100.00;97483.38;5072463;28;20395;-77
2023/09/10 03:28:22;;;;;;;6.63;4.90;;;;;;;18.49;100.00;97475.63;5072611;28;20416;-77
2023/09/10 03:30:49;;;;;;;12.68;6.38;;;;;;;18.47;100.00;97482.41;5072498;28;20408;-77
2023/09/10 03:33:15;;;;;;;7.80;5.43;;;;;;;18.45;100.00;97482.69;5072402;28;20869;-77
2023/09/10 03:35:41;;;;;;;6.72;5.18;;;;;;;18.43;100.00;97490.22;5071928;28;20415;-77
2023/09/10 03:38:07;;;;;;;13.55;6.82;;;;;;;18.38;100.00;97484.19;5072379;28;20490;-77
2023/09/10 03:40:35;;;;;;;10.30;6.40;;;;;;;18.30;100.00;97487.56;5072144;28;20412;-77
2023/09/10 03:43:01;;;;;;;7.90;6.00;;;;;;;18.30;100.00;97487.56;5072314;28;20796;-77
2023/09/10 03:45:27;;;;;;;8.47;5.90;;;;;;;18.28;100.00;97481.69;5071976;28;20896;-77
2023/09/10 03:47:54;;;;;;;10.05;6.35;;;;;;;18.26;100.00;97482.03;5072161;28;20752;-77
2023/09/10 03:50:20;;;;;;;14.45;7.28;;;;;;;18.21;100.00;97484.78;5072054;28;20487;-77
2023/09/10 03:52:46;;;;;;;7.60;6.18;;;;;;;18.22;100.00;97489.03;5071685;28;20403;-77
2023/09/10 03:55:12;;;;;;;9.00;6.45;;;;;;;18.20;100.00;97475.16;5071740;28;20407;-77
2023/09/10 03:57:40;;;;;;;7.50;5.68;;;;;;;18.17;100.00;97479.22;5071959;28;20411;-77
2023/09/10 04:00:08;;;;;;;10.75;5.85;;;;;;;18.16;100.00;97484.88;5072147;28;20404;-77
2023/09/10 04:02:34;;;;;;;9.13;6.10;;;;;;;18.15;100.00;97489.44;5071892;28;20792;-77
2023/09/10 04:05:01;;;;;;;8.73;6.37;;;;;;;18.13;100.00;97491.63;5071714;28;20419;-77
2023/09/10 04:07:27;;;;;;;9.43;5.80;;;;;;;18.10;100.00;97489.56;5071925;28;20423;-77
2023/09/10 04:09:53;;;;;;;9.20;6.40;;;;;;;18.07;100.00;97492.00;5071797;28;20411;-77
2023/09/10 04:12:19;;;;;;;7.63;5.43;;;;;;;18.05;100.00;97488.81;5071817;28;20453;-77
2023/09/10 04:14:47;;;;;;;9.73;6.03;;;;;;;18.03;100.00;97480.31;5071595;28;20408;-77
2023/09/10 04:17:16;;;;;;;11.65;6.72;;;;;;;18.01;100.00;97494.00;5071810;28;20458;-77
2023/09/10 04:19:42;;;;;;;10.77;6.07;;;;;;;17.98;100.00;97496.47;5071662;28;20391;-77
2023/09/10 04:22:08;;;;;;;6.53;5.40;;;;;;;17.95;100.00;97489.03;5071620;28;20407;-77
2023/09/10 04:24:34;;;;;;;7.80;5.85;;;;;;;17.93;100.00;97496.56;5071223;28;20402;-77
2023/09/10 04:27:01;;;;;;;14.82;6.40;;;;;;;17.91;100.00;97494.19;5071475;28;20395;-77
2023/09/10 04:29:28;;;;;;;12.57;6.40;;;;;;;17.89;100.00;97499.06;5071520;28;20502;-77
2023/09/10 04:31:56;;;;;;;7.18;5.65;;;;;;;17.87;100.00;97493.19;5071385;28;20406;-77
2023/09/10 04:34:23;;;;;;;7.47;5.85;;;;;;;17.88;100.00;97499.34;5071117;28;20404;-77
2023/09/10 04:36:49;;;;;;;6.20;5.00;;;;;;;17.88;100.00;97499.34;5071278;28;20416;-77
2023/09/10 04:39:16;;;;;;;10.10;6.40;;;;;;;17.87;100.00;97495.88;5071535;28;20428;-77
2023/09/10 04:41:42;;;;;;;7.88;5.85;;;;;;;17.86;100.00;97496.94;5071115;28;20431;-77
2023/09/10 04:44:09;;;;;;;8.18;5.70;;;;;;;17.87;100.00;97503.09;5070788;28;20432;-77
2023/09/10 04:46:35;;;;;;;9.63;5.87;;;;;;;17.85;100.00;97497.25;5071053;28;20403;-77
2023/09/10 04:49:02;;;;;;;13.35;7.07;;;;;;;17.82;100.00;97506.66;5070989;28;20477;-77
2023/09/10 04:51:28;;;;;;;10.10;6.27;;;;;;;17.80;100.00;97506.16;5071014;28;20399;-77
2023/09/10 04:53:55;;;;;;;12.30;6.63;;;;;;;17.79;100.00;97508.06;5070718;28;20400;-77
2023/09/10 04:56:21;;;;;;;7.88;5.90;;;;;;;17.80;100.00;97503.50;5070991;28;20751;-77
2023/09/10 04:58:47;;;;;;;9.18;5.93;;;;;;;17.81;100.00;97505.09;5072962;28;20411;-77
2023/09/10 05:01:14;;;;;;;9.23;6.50;;;;;;;17.82;100.00;97508.56;5085442;28;20461;-77
2023/09/10 05:03:43;;;;;;;9.32;6.78;;;;;;;17.79;100.00;97510.72;5070426;28;20453;-78
2023/09/10 05:06:12;;;;;;;9.23;6.90;;;;;;;17.79;100.00;97512.59;5070079;28;20950;-77
2023/09/10 05:08:39;;;;;;;8.30;6.32;;;;;;;17.79;100.00;97517.97;5070768;28;20742;-77
2023/09/10 05:11:05;;;;;;;7.78;6.18;;;;;;;17.77;100.00;97515.56;5070751;28;20400;-77
2023/09/10 05:13:32;;;;;;;7.22;5.75;;;;;;;17.77;100.00;97522.81;5070364;28;20408;-77
2023/09/10 05:15:58;;;;;;;8.40;6.30;;;;;;;17.76;100.00;97524.69;5070591;28;20884;-77
2023/09/10 05:18:25;;;;;;;9.60;6.93;;;;;;;17.75;100.00;97519.63;5070808;28;20396;-77
2023/09/10 05:20:52;;;;;;;9.43;6.30;;;;;;;17.73;100.00;97521.81;5070672;28;20958;-77
2023/09/10 05:23:21;;;;;;;9.13;5.90;;;;;;;17.75;100.00;97528.44;5070187;28;20761;-77
2023/09/10 05:25:47;;;;;;;9.00;5.90;;;;;;;17.77;100.00;97520.13;5070462;28;20905;-77
2023/09/10 05:28:14;;;;;;;7.55;5.60;;;;;;;17.79;100.00;97523.31;5070386;28;20399;-77
2023/09/10 05:30:40;;;;;;;6.97;5.70;;;;;;;17.80;100.00;97524.91;5070359;28;20396;-77
2023/09/10 05:33:06;;;;;;;6.00;4.97;;;;;;;17.82;100.00;97530.75;5070395;28;20897;-77
2023/09/10 05:35:33;;;;;;;5.97;4.70;;;;;;;17.84;100.00;97531.25;5070334;28;20428;-77
2023/09/10 05:37:59;;;;;;;7.57;5.30;;;;;;;17.87;100.00;97533.34;5082615;28;20480;-77
2023/09/10 05:40:27;;;;;;;7.70;5.32;;;;;;;17.89;100.00;97533.88;5071038;28;20757;-77
2023/09/10 05:42:53;;;;;;;10.55;7.07;;;;;;;17.89;100.00;97530.41;5070247;28;20434;-77
2023/09/10 05:45:20;;;;;;;8.32;5.90;;;;;;;17.91;100.00;97530.88;5070139;28;20403;-77
2023/09/10 05:47:46;;;;;;;8.77;6.05;;;;;;;17.93;100.00;97531.38;5070441;28;20399;-77
2023/09/10 05:50:12;;;;;;;8.40;6.20;;;;;;;17.95;100.00;97523.84;5070197;28;20896;-77
2023/09/10 05:52:38;;;;;;;10.85;6.80;;;;;;;17.98;100.00;97528.59;5070212;28;20586;-77
2023/09/10 05:55:05;;;;;;;7.70;5.75;;;;;;;18.01;100.00;97531.50;5070018;28;20788;-77
2023/09/10 05:57:33;;;;;;;7.35;5.35;;;;;;;18.06;100.00;97530.59;5070023;28;20422;-77
2023/09/10 05:59:59;;;;;;;6.90;5.20;;;;;;;18.10;100.00;97527.06;5082372;28;20878;-77
2023/09/10 06:02:25;;;;;;;6.10;4.95;;;;;;;18.15;100.00;97532.31;5074466;28;20465;-77
2023/09/10 06:04:51;;;;;;;7.00;5.47;;;;;;;18.21;100.00;97538.38;5069789;28;20463;-77
2023/09/10 06:07:18;;;;;;;5.82;4.70;;;;;;;18.24;100.00;97537.78;5070069;28;20391;-77
2023/09/10 06:09:44;;;;;;;7.10;5.55;;;;;;;18.27;100.00;97537.19;5070575;28;20407;-78
2023/09/10 06:12:10;;;;;;;7.07;5.45;;;;;;;18.32;100.00;97536.31;5088064;28;20497;-78
2023/09/10 06:14:38;;;;;;;6.45;4.82;;;;;;;18.37;100.00;97537.00;5085207;28;20400;-78
2023/09/10 06:17:04;;;;;;;7.07;5.47;;;;;;;18.42;100.00;97531.53;5086770;28;20406;-78
2023/09/10 06:19:30;;;;;;;7.13;5.32;;;;;;;18.47;100.00;97530.66;5085842;28;20449;-78
2023/09/10 06:21:56;;;;;;;8.40;5.68;;;;;;;18.52;100.00;97535.91;5086330;28;20400;-78
2023/09/10 06:24:22;;;;;;;7.32;5.40;;;;;;;18.57;100.00;97527.78;5090359;28;20412;-78
2023/09/10 06:26:49;;;;;;;7.32;5.43;;;;;;;18.62;100.00;97529.59;5092983;28;20792;-78
2023/09/10 06:29:15;;;;;;;7.50;5.20;;;;;;;18.68;100.00;97534.53;5090816;28;20864;-78
2023/09/10 06:31:43;;;;;;;5.85;4.72;;;;;;;18.74;100.00;97533.34;5076306;28;20406;-78
2023/09/10 06:34:09;;;;;;;8.10;5.68;;;;;;;18.82;100.00;97534.53;5075967;28;20484;-78
2023/09/10 06:36:35;;;;;;;8.05;5.60;;;;;;;18.88;100.00;97533.31;5076223;28;20415;-78
2023/09/10 06:39:03;;;;;;;6.25;5.05;;;;;;;18.95;100.00;97536.38;5077958;28;20404;-78
2023/09/10 06:41:30;;;;;;;7.07;5.13;;;;;;;19.02;100.00;97531.41;5093175;28;20402;-78
2023/09/10 06:43:56;;;;;;;8.50;5.93;;;;;;;19.09;100.00;97545.22;5097553;28;20397;-78
2023/09/10 06:46:22;;;;;;;8.13;5.32;;;;;;;19.17;100.00;97547.16;5089564;28;20471;-78
2023/09/10 06:48:50;;;;;;;9.07;5.72;;;;;;;19.24;100.00;97544.88;5096011;28;20463;-78
2023/09/10 06:51:16;;;;;;;7.40;5.70;;;;;;;19.32;100.00;97540.69;5086229;28;20398;-77
2023/09/10 06:53:42;;;;;;;8.23;5.75;;;;;;;19.39;100.00;97546.44;5086046;28;20463;-77
2023/09/10 06:56:08;;;;;;;8.35;6.03;;;;;;;19.47;100.00;97547.63;5077106;28;20417;-77
2023/09/10 06:58:34;;;;;;;8.40;6.30;;;;;;;19.54;100.00;97548.00;5079202;28;20409;-77
2023/09/10 07:01:04;;;;;;;9.55;6.28;;;;;;;19.63;100.00;97560.38;5086565;28;20441;-77
2023/09/10 07:03:32;;;;;;;8.15;6.03;;;;;;;19.72;100.00;97549.69;5087172;28;21108;-77
2023/09/10 07:06:01;;;;;;;9.10;6.17;;;;;;;19.83;100.00;97556.41;5092207;28;20943;-77
2023/09/10 07:08:28;;;;;;;8.00;6.15;;;;;;;19.96;100.00;97552.06;5086791;28;20395;-77
2023/09/10 07:10:54;;;;;;;6.78;5.13;;;;;;;20.07;100.00;97558.78;5085029;28;20400;-77
2023/09/10 07:13:20;;;;;;;8.90;5.75;;;;;;;20.19;100.00;97555.50;5075366;28;20965;-77
2023/09/10 07:15:47;;;;;;;7.23;5.63;;;;;;;20.30;100.00;97559.50;5088767;28;20496;-77
2023/09/10 07:18:15;;;;;;;7.40;5.57;;;;;;;20.40;100.00;97559.25;5093803;28;20407;-77
2023/09/10 07:20:41;;;;;;;9.73;5.13;;;;;;;20.50;100.00;97566.28;5077135;28;20417;-77
2023/09/10 07:23:09;;;;;;;7.72;5.55;;;;;;;20.58;100.00;97554.75;5076028;28;20408;-77
2023/09/10 07:25:35;;;;;;;6.70;5.30;;;;;;;20.69;100.00;97561.41;5075832;28;20404;-77
2023/09/10 07:28:01;;;;;;;6.05;5.00;;;;;;;20.79;100.00;97566.53;5075179;28;20404;-77
2023/09/10 07:30:27;;;;;;;7.85;5.43;;;;;;;20.89;100.00;97560.88;5082273;28;20400;-77
2023/09/10 07:32:53;;;;;;;7.37;5.67;;;;;;;21.01;100.00;97566.41;5083620;28;20911;-78
2023/09/10 07:35:20;;;;;;;8.23;5.70;;;;;;;21.15;100.00;97568.97;5074621;28;20403;-77
2023/09/10 07:37:46;;;;;;;6.63;5.13;;;;;;;21.27;100.00;97568.41;5074532;28;20443;-77
2023/09/10 07:40:14;;;;;;;8.32;6.00;;;;;;;21.40;100.00;97570.16;5078358;28;20407;-77
2023/09/10 07:42:40;;;;;;;7.30;5.32;;;;;;;21.52;100.00;97571.09;5076061;28;20400;-77
2023/09/10 07:45:14;;;;;;;6.30;5.10;;;;;;;21.63;100.00;97575.06;5074629;28;20404;-77
2023/09/10 07:47:40;;;;;;;8.63;5.65;;;;;;;21.75;100.00;97576.31;5074897;28;20903;-77
2023/09/10 07:50:07;;;;;;;6.37;5.00;;;;;;;21.85;100.00;97567.91;5074751;28;20496;-77
2023/09/10 07:52:33;;;;;;;8.35;5.25;;;;;;;21.95;100.00;97579.13;5088464;28;20440;-78
2023/09/10 07:54:59;;;;;;;7.53;5.13;;;;;;;22.05;100.00;97574.56;5073906;28;20412;-77
2023/09/10 07:57:27;;;;;;;8.65;5.07;;;;;;;22.14;100.00;97581.53;5086151;28;20406;-76
2023/09/10 07:59:53;;;;;;;5.50;4.40;;;;;;;22.24;100.00;97583.09;5087123;28;20667;-75
2023/09/10 08:02:20;;;;;;;8.02;5.22;;;;;;;22.33;100.00;97586.53;5082783;28;20392;-76
2023/09/10 08:04:46;;;;;;;6.47;5.10;;;;;;;22.43;100.00;97577.31;5083278;28;20397;-76
2023/09/10 08:07:12;;;;;;;8.63;5.10;;;;;;;22.54;100.00;97587.44;5091610;28;20390;-76
2023/09/10 08:09:39;;;;;;;6.75;5.10;;;;;;;22.62;100.00;97578.50;5087975;28;20972;-76
2023/09/10 08:12:06;;;;;;;7.88;5.13;;;;;;;22.71;100.00;97583.84;5091635;28;20754;-76
2023/09/10 08:14:35;;;;;;;6.00;4.75;;;;;;;22.81;100.00;97585.44;5090081;28;20416;-76
2023/09/10 08:17:01;;;;;;;7.72;5.60;;;;;;;22.90;100.00;97586.19;5086883;28;20788;-77
2023/09/10 08:19:28;;;;;;;7.70;4.93;;;;;;;22.99;100.00;97589.63;5088162;28;20405;-77
2023/09/10 08:21:54;;;;;;;5.68;4.80;;;;;;;23.10;100.00;97588.13;5087534;28;20497;-77
2023/09/10 08:24:21;;;;;;;5.50;4.97;;;;;;;23.23;100.00;97584.38;5090802;28;20444;-77
2023/09/10 08:26:48;;;;;;;6.67;4.90;;;;;;;23.37;100.00;97578.75;5082555;28;20767;-77
2023/09/10 08:29:14;;;;;;;7.38;4.93;;;;;;;23.52;100.00;97578.97;5087106;28;20394;-77
2023/09/10 08:31:42;;;;;;;6.43;5.00;;;;;;;23.70;100.00;97578.81;5074935;28;21005;-77
2023/09/10 08:34:08;;;;;;;7.35;5.00;;;;;;;23.85;100.00;97584.41;5089971;28;20472;-77
2023/09/10 08:36:34;;;;;;;7.80;5.30;;;;;;;24.01;100.00;97579.16;5082491;28;20416;-77
2023/09/10 08:39:00;;;;;;;7.38;4.72;;;;;;;24.15;100.00;97579.66;5089705;28;20470;-77
2023/09/10 08:41:32;;;;;;;7.38;5.15;;;;;;;24.29;100.00;97582.06;5089291;28;20417;-77
2023/09/10 08:44:01;;;;;;;5.60;4.72;;;;;;;24.39;100.00;97583.56;5081093;28;20394;-77
2023/09/10 08:46:31;;;;;;;7.65;4.70;;;;;;;24.44;100.00;97584.13;5081908;28;20407;-77
2023/09/10 08:48:59;;;;;;;6.50;4.65;;;;;;;24.50;100.00;97580.09;5072024;28;20392;-77
2023/09/10 08:51:26;;;;;;;7.43;4.50;;;;;;;24.54;100.00;97582.91;5072272;28;20446;-77
2023/09/10 08:53:55;;;;;;;5.43;4.55;;;;;;;24.58;100.00;97592.72;5072054;28;20416;-77
2023/09/10 08:56:22;;;;;;;6.63;4.50;;;;;;;24.61;100.00;97591.25;5083852;28;20410;-77
2023/09/10 08:58:50;;;;;;;5.38;4.20;;;;;;;24.65;100.00;97584.84;5085059;28;20905;-77
2023/09/10 09:01:19;;;;;;;5.28;3.97;;;;;;;24.69;100.00;97579.53;5084672;28;20834;-77
2023/09/10 09:03:47;;;;;;;5.50;4.30;;;;;;;24.74;100.00;97582.00;5081407;28;20405;-77
2023/09/10 09:06:16;;;;;;;6.40;4.40;;;;;;;24.79;100.00;97581.81;5083057;28;20401;-77
2023/09/10 09:08:48;;;;;;;5.63;4.35;;;;;;;24.88;100.00;97582.50;5084423;28;20400;-76
2023/09/10 09:11:15;;;;;;;6.45;4.60;;;;;;;24.97;100.00;97583.19;5084088;28;20402;-76
2023/09/10 09:13:45;;;;;;;5.07;4.10;;;;;;;25.05;100.00;97578.75;5086036;28;20911;-77
2023/09/10 09:16:12;;;;;;;5.82;4.38;;;;;;;25.15;100.00;97574.81;5085305;28;20783;-77
2023/09/10 09:18:39;;;;;;;6.40;4.32;;;;;;;25.24;100.00;97584.41;5086505;28;20405;-77
2023/09/10 09:21:11;;;;;;;5.97;4.20;;;;;;;25.33;100.00;97582.34;5072048;28;20403;-77
2023/09/10 09:23:44;;;;;;;6.03;4.03;;;;;;;25.45;100.00;97586.94;5072567;28;20498;-77
2023/09/10 09:26:12;;;;;;;4.30;3.50;;;;;;;25.61;100.00;97579.72;5085973;28;20412;-77
2023/09/10 09:28:39;;;;;;;4.73;3.90;;;;;;;25.77;100.00;97577.84;5086239;28;20393;-77
2023/09/10 09:31:08;;;;;;;7.00;4.32;;;;;;;25.97;100.00;97584.19;5086491;28;20395;-77
2023/09/10 09:33:35;;;;;;;6.47;4.10;;;;;;;26.20;100.00;97574.34;5076592;28;20402;-77
2023/09/10 09:36:06;;;;;;;6.80;4.85;;;;;;;26.48;100.00;97573.53;5089824;28;20394;-77
2023/09/10 09:38:32;;;;;;;6.80;4.07;;;;;;;26.77;100.00;97578.50;5086773;28;20390;-77
2023/09/10 09:41:03;;;;;;;5.05;4.00;;;;;;;27.09;100.00;97571.13;5087303;28;20401;-78
2023/09/10 09:43:34;;;;;;;5.90;4.13;;;;;;;27.38;100.00;97567.09;5075779;28;20433;-78
2023/09/10 09:46:00;;;;;;;7.25;3.88;;;;;;;27.65;100.00;97557.22;5076342;28;20388;-77
2023/09/10 09:48:27;;;;;;;5.78;3.90;;;;;;;27.82;100.00;97551.31;5071122;28;20392;-77
2023/09/10 09:50:53;;;;;;;5.35;4.30;;;;;;;27.95;100.00;97552.75;5082998;28;20412;-77
2023/09/10 09:53:24;;;;;;;6.38;4.47;;;;;;;28.02;100.00;97557.53;5087908;28;20895;-77
2023/09/10 09:55:54;;;;;;;6.35;4.53;;;;;;;28.02;100.00;97555.63;5088538;28;20890;-77
2023/09/10 09:58:22;;;;;;;6.50;4.38;;;;;;;28.03;100.00;97556.41;5088719;28;20404;-77
2023/09/10 10:00:48;;;;;;;6.28;4.50;;;;;;;28.07;100.00;97557.25;5090953;28;20386;-77
2023/09/10 10:03:16;;;;;;;5.30;4.25;;;;;;;28.11;100.00;97553.47;5077086;28;20482;-77
2023/09/10 10:05:42;;;;;;;8.45;5.75;;;;;;;28.06;100.00;97553.72;5071634;28;20402;-77
2023/09/10 10:08:08;;;;;;;6.18;4.85;;;;;;;28.15;100.00;97539.91;5072393;28;20445;-77
2023/09/10 10:10:35;;;;;;;7.78;4.50;;;;;;;28.15;100.00;97547.28;5087049;28;20928;-77
2023/09/10 10:13:01;;;;;;;7.07;4.93;;;;;;;28.15;100.00;97542.66;5085838;28;20495;-77
2023/09/10 10:15:29;;;;;;;6.05;4.25;;;;;;;28.15;100.00;97539.09;5091259;28;20512;-77
2023/09/10 10:17:57;;;;;;;7.00;4.93;;;;;;;28.13;100.00;97544.91;5106656;28;20421;-77
2023/09/10 10:20:24;;;;;;;9.15;4.90;;;;;;;28.13;100.00;97547.63;5077483;28;20399;-77
2023/09/10 10:22:51;;;;;;;8.17;5.60;;;;;;;28.11;100.00;97537.13;5084114;28;20406;-78
2023/09/10 10:25:17;;;;;;;7.57;4.85;;;;;;;28.01;100.00;97529.53;5086276;28;20402;-77
2023/09/10 10:27:44;;;;;;;6.47;4.60;;;;;;;27.98;100.00;97527.53;5092082;28;20429;-77
2023/09/10 10:30:12;;;;;;;5.22;4.30;;;;;;;28.02;100.00;97519.44;5091835;28;20915;-77
2023/09/10 10:32:41;;;;;;;6.90;4.30;;;;;;;28.05;100.00;97527.66;5092250;28;20390;-77
2023/09/10 10:35:10;;;;;;;6.47;4.73;;;;;;;28.10;100.00;97523.88;5092427;28;20455;-78
2023/09/10 10:37:45;;;;;;;5.82;4.85;;;;;;;28.08;100.00;97520.72;5074644;28;20503;-76
2023/09/10 10:40:13;;;;;;;9.15;4.38;;;;;;;28.07;100.00;97521.84;5081927;28;20425;-77
2023/09/10 10:42:48;;;;;;;7.00;4.35;;;;;;;28.09;100.00;97516.84;5073200;28;20396;-77
2023/09/10 10:45:17;;;;;;;6.53;4.80;;;;;;;28.22;99.80;97520.19;5070611;28;20402;-77
2023/09/10 10:47:47;;;;;;;7.28;5.10;;;;;;;28.13;98.17;97514.97;5071091;28;20404;-77
2023/09/10 10:50:24;;;;;;;6.37;5.13;;;;;;;28.12;98.55;97508.72;5070840;28;20400;-77
2023/09/10 10:52:57;;;;;;;6.72;4.70;;;;;;;28.13;98.49;97507.59;5087286;28;20390;-77
2023/09/10 10:55:25;;;;;;;5.47;4.68;;;;;;;28.21;99.04;97513.19;5075482;28;20461;-77
2023/09/10 10:57:53;;;;;;;8.93;4.70;;;;;;;28.32;99.01;97503.28;5079762;28;20412;-77
2023/09/10 11:00:20;;;;;;;5.60;4.50;;;;;;;28.43;99.06;97501.50;5076135;28;20390;-78
2023/09/10 11:02:49;;;;;;;5.85;4.80;;;;;;;28.49;99.34;97495.38;5077670;28;20396;-77
2023/09/10 11:05:16;;;;;;;5.40;4.53;;;;;;;28.59;99.23;97496.69;5090957;28;20406;-77
2023/09/10 11:07:42;;;;;;;6.37;4.50;;;;;;;28.67;99.44;97501.09;5081664;28;20948;-77
2023/09/10 11:10:39;;;;;;;6.63;4.97;;;;;;;28.74;96.59;97506.66;5079470;28;20877;-77
2023/09/10 11:13:06;;;;;;;6.22;5.20;;;;;;;28.66;93.14;97496.00;5083005;28;20469;-77
2023/09/10 11:15:32;;;;;;;5.72;4.85;;;;;;;28.59;93.34;97504.06;5082391;28;20394;-77
2023/09/10 11:18:32;;;;;;;4.97;4.37;;;;;;;28.65;92.98;97495.22;5090817;28;20482;-77
2023/09/10 11:21:00;;;;;;;5.55;4.50;;;;;;;28.77;92.88;97492.34;5076992;28;20522;-78
2023/09/10 11:23:26;;;;;;;5.60;4.67;;;;;;;28.88;93.05;97492.47;5090898;28;20851;-77
2023/09/10 11:25:52;;;;;;;6.67;4.83;;;;;;;28.98;92.46;97491.84;5081865;28;20420;-78